Eagle Lake, New York
Current Conditions -  °F | °C
As of 9:35 AM on Thursday 23 Oct 2014 (Local Time) from K6B0 Reporting Station
Overcast Overcast  
Wind Chill: 38°   Ceiling: 1200
Heat Index: 43°   Visibility: 10mi
Dew Point: 40°   Wind: 9mph
Humidity: 90%   Direction: 350°N
Pressure: 29.91"   Gusts: 18mph
Location:  43.8519°N, 73.5047°W
Report Text: K6B0 231335Z AUTO 35008G16KT 10SM OVC012 06/05 A2991 RMK AO2 T00610045
Loading
Personal Weather Stations






























Interactive Weather Map
Tropical Storm Tracking
New forecast layout! Learn more

10-Day Weather Forecast

Advertisements
Track Severe Weather on mobile